createdAt,value
2019-02-12T05:31:10.489Z,2.00
2019-02-12T05:32:18.738Z,3.80
2019-02-12T05:33:26.779Z,1.90
2019-02-12T05:34:34.812Z,2.47
2019-02-12T05:35:42.834Z,1.77
2019-02-12T05:36:50.563Z,1.77
2019-02-12T05:37:58.658Z,1.90
2019-02-12T05:39:06.860Z,1.87
2019-02-12T05:40:15.108Z,2.07
2019-02-12T05:41:22.818Z,1.73
2019-02-12T05:42:30.838Z,1.50
2019-02-12T05:43:39.222Z,2.07
2019-02-12T05:44:47.296Z,1.80
2019-02-12T05:45:55.524Z,1.87
2019-02-12T05:47:03.968Z,1.67
2019-02-12T05:48:13.597Z,2.27
2019-02-12T05:49:21.402Z,1.80
2019-02-12T05:50:30.973Z,1.70
2019-02-12T05:51:39.275Z,1.93
2019-02-12T05:52:53.704Z,1.40
2019-02-12T05:53:56.793Z,1.67
2019-02-12T05:55:04.949Z,1.73
2019-02-12T05:56:12.853Z,1.97
2019-02-12T05:57:20.372Z,2.10
2019-02-12T05:58:28.380Z,2.07
2019-02-12T05:59:38.312Z,1.53
2019-02-12T06:00:46.066Z,2.00
2019-02-12T06:01:53.750Z,2.37
2019-02-12T06:03:01.680Z,1.83
2019-02-12T06:04:10.143Z,2.23
2019-02-12T06:05:30.218Z,1.73
2019-02-12T06:06:38.577Z,2.10
2019-02-12T06:07:46.651Z,2.00
2019-02-12T06:08:54.945Z,2.03
2019-02-12T06:10:02.864Z,1.73
2019-02-12T06:11:10.845Z,1.60
2019-02-12T06:12:18.935Z,1.90
2019-02-12T06:13:26.933Z,1.60
2019-02-12T06:14:35.064Z,1.77
2019-02-12T06:15:43.140Z,1.70
2019-02-12T06:16:51.132Z,1.40
2019-02-12T06:17:58.865Z,1.90
2019-02-12T06:19:06.741Z,1.60
2019-02-12T06:20:14.409Z,1.30
2019-02-12T06:21:22.173Z,1.73
2019-02-12T06:22:30.385Z,1.70
2019-02-12T06:23:38.646Z,1.40
2019-02-12T06:24:46.263Z,1.70
2019-02-12T06:25:54.463Z,1.97
2019-02-12T06:27:02.563Z,1.60
2019-02-12T06:28:10.562Z,1.43
2019-02-12T06:29:19.449Z,1.73
2019-02-12T06:30:29.929Z,1.63
2019-02-12T06:31:38.309Z,1.80
2019-02-12T06:32:47.242Z,2.27
2019-02-12T06:33:55.408Z,2.10
2019-02-12T06:35:03.680Z,1.37
2019-02-12T06:36:11.570Z,1.70
2019-02-12T06:37:19.298Z,1.60
2019-02-12T06:38:27.678Z,1.73
2019-02-12T06:39:35.800Z,1.40
2019-02-12T06:40:43.579Z,1.70
2019-02-12T06:41:51.359Z,1.50
2019-02-12T06:42:59.163Z,1.77
2019-02-12T06:44:07.387Z,1.63
2019-02-12T06:45:16.393Z,1.83
2019-02-12T06:46:24.066Z,1.20
2019-02-12T06:47:32.155Z,1.40
2019-02-12T06:48:40.150Z,2.20
2019-02-12T06:49:48.078Z,1.93
2019-02-12T06:50:56.135Z,1.60
2019-02-12T06:52:04.134Z,1.77
2019-02-12T06:53:12.868Z,2.77
2019-02-12T06:54:20.985Z,2.20
2019-02-12T06:55:29.130Z,1.50
2019-02-12T06:56:37.382Z,2.10
2019-02-12T06:57:45.423Z,2.80
2019-02-12T06:58:53.574Z,2.07
2019-02-12T07:00:01.482Z,1.43
2019-02-12T07:01:09.361Z,2.73
2019-02-12T07:03:07.738Z,1.60
2019-02-12T07:04:15.833Z,1.40
2019-02-12T07:05:24.132Z,1.40
2019-02-12T07:07:00.282Z,1.80
2019-02-12T07:08:21.898Z,1.90
2019-02-12T07:09:34.426Z,1.83
2019-02-12T07:10:42.447Z,1.97
2019-02-12T07:12:19.465Z,2.80
2019-02-12T07:13:39.248Z,1.97
2019-02-12T07:15:00.701Z,2.53
2019-02-12T07:16:13.467Z,1.97
2019-02-12T07:17:56.787Z,1.70
2019-02-12T07:19:29.965Z,3.10
2019-02-12T07:21:06.288Z,2.30
2019-02-12T07:22:46.420Z,1.93
2019-02-12T07:24:07.932Z,1.83
2019-02-12T07:25:55.110Z,1.77
2019-02-12T07:27:18.858Z,2.23
2019-02-12T07:28:49.527Z,2.17
2019-02-12T07:30:18.989Z,1.97
2019-02-12T07:32:00.434Z,1.80
2019-02-12T07:33:16.090Z,2.10
2019-02-12T07:34:46.702Z,2.57
2019-02-12T07:36:32.548Z,1.70
2019-02-12T07:38:04.397Z,1.90
2019-02-12T07:39:22.259Z,2.33
2019-02-12T07:41:02.005Z,2.23
2019-02-12T07:42:34.340Z,1.77
2019-02-12T07:43:55.740Z,2.20
2019-02-12T07:45:27.491Z,2.63
2019-02-12T07:46:42.768Z,2.10
2019-02-12T07:48:13.499Z,2.20
2019-02-12T07:49:42.175Z,1.70
2019-02-12T07:51:12.994Z,2.27
2019-02-12T07:52:40.961Z,1.77
2019-02-12T07:54:29.360Z,2.07
2019-02-12T07:55:47.651Z,1.83
2019-02-12T07:57:19.594Z,1.90
2019-02-12T07:58:47.288Z,2.17
2019-02-12T08:00:15.057Z,1.60
2019-02-12T08:01:33.266Z,1.80
2019-02-12T08:02:58.299Z,2.43
2019-02-12T08:04:36.387Z,2.30
2019-02-12T08:05:57.539Z,2.03
2019-02-12T08:07:34.198Z,2.80
2019-02-12T08:09:40.106Z,1.67
2019-02-12T08:11:01.247Z,1.67
2019-02-12T08:12:31.617Z,1.73
2019-02-12T08:14:25.354Z,2.50
2019-02-12T08:16:05.139Z,1.80
2019-02-12T08:17:32.426Z,1.20
2019-02-12T08:19:13.798Z,1.67
2019-02-12T08:21:06.886Z,2.00
2019-02-12T08:22:25.254Z,1.37
2019-02-12T08:23:41.170Z,1.10
2019-02-12T08:25:22.406Z,1.60
2019-02-12T08:26:50.133Z,1.40
2019-02-12T08:28:23.521Z,2.00
2019-02-12T08:29:35.964Z,2.80
2019-02-12T08:31:00.323Z,1.17
2019-02-12T08:32:30.727Z,1.10
2019-02-12T08:33:52.026Z,1.60
2019-02-12T08:35:22.940Z,2.07
2019-02-12T08:36:56.376Z,1.37
2019-02-12T08:38:57.818Z,1.37
2019-02-12T08:40:10.603Z,1.40
2019-02-12T08:41:42.750Z,1.07
2019-02-12T08:42:55.269Z,1.13
2019-02-12T08:44:19.946Z,1.40
2019-02-12T08:45:50.569Z,1.47
2019-02-12T08:47:21.016Z,0.93
2019-02-12T08:48:45.747Z,1.60
2019-02-12T08:50:19.758Z,1.40
2019-02-12T08:52:08.536Z,1.33
2019-02-12T08:53:50.578Z,1.20
2019-02-12T08:55:28.133Z,1.90
2019-02-12T08:57:12.284Z,1.53
2019-02-12T08:58:30.465Z,1.73
2019-02-12T08:59:58.296Z,3.10
2019-02-12T09:01:19.555Z,1.70
2019-02-12T09:02:58.775Z,1.73
2019-02-12T09:04:35.745Z,1.40
2019-02-12T09:06:13.253Z,1.87
2019-02-12T09:07:31.629Z,1.90
2019-02-12T09:08:52.739Z,2.23
2019-02-12T09:10:20.782Z,1.80
2019-02-12T09:12:06.808Z,1.50
2019-02-12T09:13:28.165Z,2.17
2019-02-12T09:14:52.992Z,1.40
2019-02-12T09:16:34.488Z,1.23
2019-02-12T09:18:05.297Z,2.43
2019-02-12T09:19:23.620Z,2.30
2019-02-12T09:21:04.278Z,1.50
2019-02-12T09:22:22.235Z,1.60
2019-02-12T09:24:00.392Z,2.37
2019-02-12T09:25:28.054Z,1.20
2019-02-12T09:26:52.372Z,1.93
2019-02-12T09:28:33.413Z,2.73
2019-02-12T09:29:51.684Z,2.07
2019-02-12T09:31:24.970Z,1.90
2019-02-12T09:33:03.089Z,1.30
2019-02-12T09:34:18.287Z,1.67
2019-02-12T09:35:42.309Z,1.40
2019-02-12T09:37:34.284Z,1.90
2019-02-12T09:39:10.144Z,1.13
2019-02-12T09:40:32.411Z,1.73
2019-02-12T09:41:50.487Z,2.10
2019-02-12T09:43:25.506Z,1.50
2019-02-12T09:44:37.861Z,1.57
2019-02-12T09:46:19.870Z,1.50
2019-02-12T09:47:53.362Z,1.17
2019-02-12T09:49:44.354Z,1.40
2019-02-12T09:51:08.505Z,1.27
2019-02-12T09:52:54.674Z,2.20
2019-02-12T09:54:20.661Z,1.60
2019-02-12T09:55:50.913Z,1.73
2019-02-12T09:57:23.840Z,1.40
2019-02-12T09:58:51.801Z,2.53
2019-02-12T10:00:08.279Z,2.17
2019-02-12T10:01:26.731Z,1.40
2019-02-12T10:03:03.410Z,1.60
2019-02-12T10:04:35.190Z,1.60
2019-02-12T10:06:22.102Z,1.50
2019-02-12T10:07:42.507Z,1.30
2019-02-12T10:09:05.190Z,2.93
2019-02-12T10:10:17.995Z,2.63
2019-02-12T10:11:53.047Z,1.60
2019-02-12T10:13:05.444Z,2.13
2019-02-12T10:14:38.298Z,2.00
2019-02-12T10:15:59.598Z,2.50
2019-02-12T10:17:36.616Z,2.40
2019-02-12T10:18:52.208Z,1.97
2019-02-12T10:20:04.596Z,1.70
2019-02-12T10:21:31.986Z,1.40
2019-02-12T10:22:50.385Z,1.53
2019-02-12T10:24:19.981Z,2.07
2019-02-12T10:25:27.995Z,2.00
2019-02-12T10:27:06.015Z,1.27
2019-02-12T10:28:57.581Z,1.50
2019-02-12T10:30:32.195Z,2.10
2019-02-12T10:31:44.139Z,1.30
2019-02-12T10:32:52.036Z,1.93
2019-02-12T10:33:59.549Z,1.97
2019-02-12T10:35:07.236Z,2.63
2019-02-12T10:36:15.031Z,2.00
2019-02-12T10:37:23.101Z,2.43
2019-02-12T10:38:30.672Z,1.73
2019-02-12T10:39:38.465Z,1.90
2019-02-12T10:40:46.359Z,1.63
2019-02-12T10:41:54.121Z,1.93
2019-02-12T10:43:02.002Z,1.40
2019-02-12T10:44:10.039Z,2.33
2019-02-12T10:45:17.955Z,2.23
2019-02-12T10:46:26.084Z,2.37
2019-02-12T10:47:33.611Z,1.73
2019-02-12T10:48:41.400Z,1.50
2019-02-12T10:49:49.243Z,2.00
2019-02-12T10:50:56.975Z,2.07
2019-02-12T10:52:04.607Z,2.37
2019-02-12T10:53:12.616Z,2.23
2019-02-12T10:54:27.758Z,2.07
2019-02-12T10:55:29.870Z,1.70
2019-02-12T10:56:37.795Z,1.93
2019-02-12T10:57:45.650Z,2.10
2019-02-12T10:58:53.447Z,2.20
2019-02-12T11:00:01.248Z,1.90
2019-02-12T11:01:09.243Z,3.10
2019-02-12T11:02:17.257Z,1.80
2019-02-12T11:03:25.011Z,2.30
2019-02-12T11:04:32.911Z,1.50
2019-02-12T11:05:40.739Z,2.47
2019-02-12T11:06:48.387Z,1.63
2019-02-12T11:07:56.172Z,1.40
2019-02-12T11:09:04.998Z,1.83
2019-02-12T11:10:12.584Z,1.87
2019-02-12T11:11:20.479Z,1.63
2019-02-12T11:12:28.572Z,2.33
2019-02-12T11:13:36.285Z,1.90
2019-02-12T11:14:44.320Z,2.13
2019-02-12T11:15:52.028Z,1.43
2019-02-12T11:16:59.520Z,1.70
2019-02-12T11:18:07.008Z,2.20
2019-02-12T11:19:14.583Z,2.60
2019-02-12T11:20:22.082Z,2.00
2019-02-12T11:21:30.167Z,1.77
2019-02-12T11:22:38.140Z,1.97
2019-02-12T11:23:46.257Z,1.97
2019-02-12T11:24:53.912Z,1.40
2019-02-12T11:26:01.661Z,1.70
2019-02-12T11:27:09.416Z,2.13
2019-02-12T11:28:17.460Z,2.10
2019-02-12T11:29:25.210Z,2.27
2019-02-12T11:30:32.942Z,2.17
2019-02-12T11:31:40.651Z,2.47
2019-02-12T11:32:48.233Z,2.07
2019-02-12T11:33:55.678Z,1.90
2019-02-12T11:35:03.774Z,2.17
2019-02-12T11:36:11.615Z,1.47
2019-02-12T11:37:19.122Z,1.87
2019-02-12T11:38:26.780Z,2.10
2019-02-12T11:39:34.800Z,2.47
2019-02-12T11:40:42.836Z,1.87
2019-02-12T11:41:50.339Z,2.03
2019-02-12T11:42:58.374Z,2.10
2019-02-12T11:44:05.951Z,2.57
2019-02-12T11:45:16.539Z,2.57
2019-02-12T11:46:26.006Z,1.90
2019-02-12T11:47:33.766Z,1.53
2019-02-12T11:48:41.719Z,1.90
2019-02-12T11:49:49.688Z,1.50
2019-02-12T11:50:57.402Z,2.30
2019-02-12T11:52:05.163Z,1.77
2019-02-12T11:53:12.988Z,1.87
2019-02-12T11:54:20.857Z,1.63
2019-02-12T11:55:28.812Z,1.80
2019-02-12T11:56:37.147Z,1.87
2019-02-12T11:57:45.235Z,2.47
2019-02-12T11:58:53.029Z,2.67
2019-02-12T12:00:00.862Z,2.53
2019-02-12T12:01:10.384Z,2.50
2019-02-12T12:02:19.714Z,1.90
2019-02-12T12:03:28.029Z,1.40
2019-02-12T12:04:36.285Z,2.03
2019-02-12T12:05:44.210Z,1.97
2019-02-12T12:06:51.830Z,2.03
2019-02-12T12:08:00.309Z,1.80
2019-02-12T12:09:08.201Z,1.27
2019-02-12T12:10:16.489Z,1.83
2019-02-12T12:11:24.302Z,1.50
2019-02-12T12:12:33.621Z,1.50
2019-02-12T12:13:41.206Z,2.00
2019-02-12T12:14:48.787Z,1.30
2019-02-12T12:15:56.419Z,1.63
2019-02-12T12:17:04.197Z,2.30
2019-02-12T12:18:13.522Z,1.70
2019-02-12T12:19:21.140Z,2.20
2019-02-12T12:20:28.719Z,2.07
2019-02-12T12:21:36.638Z,1.50
2019-02-12T12:22:44.528Z,1.80
2019-02-12T12:23:52.826Z,2.00
2019-02-12T12:25:00.647Z,2.20
2019-02-12T12:26:08.493Z,1.30
2019-02-12T12:27:16.231Z,1.60
2019-02-12T12:28:24.137Z,1.20
2019-02-12T12:29:31.879Z,1.47
2019-02-12T12:30:39.503Z,1.90
2019-02-12T12:31:47.215Z,2.90
2019-02-12T12:32:56.463Z,2.00
2019-02-12T12:34:04.290Z,2.03
2019-02-12T12:35:12.902Z,1.53
2019-02-12T12:36:20.697Z,1.43
2019-02-12T12:37:28.846Z,1.33
2019-02-12T12:38:36.418Z,1.60
2019-02-12T12:39:44.053Z,1.47
2019-02-12T12:40:52.659Z,1.40
2019-02-12T12:42:00.825Z,1.40
2019-02-12T12:43:08.590Z,1.90
2019-02-12T12:44:16.235Z,1.70
2019-02-12T12:45:24.443Z,1.40
2019-02-12T12:46:32.075Z,1.40
2019-02-12T12:47:40.343Z,1.93
2019-02-12T12:48:48.591Z,2.27
2019-02-12T12:49:56.623Z,1.37
2019-02-12T12:51:04.829Z,1.97
2019-02-12T12:52:12.978Z,2.40
2019-02-12T12:53:21.307Z,1.73
2019-02-12T12:54:29.006Z,1.53
2019-02-12T12:55:37.226Z,1.90
2019-02-12T12:56:45.447Z,2.17
2019-02-12T12:57:53.631Z,1.97
2019-02-12T12:59:01.690Z,1.20
2019-02-12T13:00:15.207Z,1.73
2019-02-12T13:01:23.355Z,1.87
2019-02-12T13:02:31.247Z,2.10
2019-02-12T13:03:39.312Z,1.60
2019-02-12T13:04:47.509Z,1.90
2019-02-12T13:05:55.225Z,2.20
2019-02-12T13:07:03.934Z,2.13
2019-02-12T13:08:11.899Z,1.80
2019-02-12T13:09:20.082Z,1.90
2019-02-12T13:10:30.341Z,1.67
2019-02-12T13:11:38.890Z,2.27
2019-02-12T13:12:47.107Z,2.17
2019-02-12T13:13:55.052Z,1.87
2019-02-12T13:15:03.357Z,1.63
2019-02-12T13:16:11.120Z,1.80
2019-02-12T13:17:19.317Z,1.50
2019-02-12T13:18:27.059Z,1.70
2019-02-12T13:19:35.305Z,1.50
2019-02-12T13:20:43.271Z,1.27
2019-02-12T13:21:51.013Z,1.70
2019-02-12T13:22:58.683Z,1.93
2019-02-12T13:24:08.231Z,1.30
2019-02-12T13:25:15.844Z,2.20
2019-02-12T13:26:25.024Z,1.93
2019-02-12T13:27:32.957Z,1.60
2019-02-12T13:28:40.703Z,1.40
2019-02-12T13:29:48.931Z,2.23
2019-02-12T13:30:56.820Z,2.10
2019-02-12T13:32:04.856Z,2.00
2019-02-12T13:33:12.953Z,2.50
2019-02-12T13:34:20.991Z,1.60
2019-02-12T13:35:29.358Z,1.80
2019-02-12T13:36:37.551Z,1.87
2019-02-12T13:37:45.914Z,1.80
2019-02-12T13:38:53.914Z,1.63
2019-02-12T13:40:04.551Z,1.90
2019-02-12T13:41:12.804Z,3.23
2019-02-12T13:42:20.652Z,1.63
2019-02-12T13:43:28.532Z,1.23
2019-02-12T13:44:36.526Z,1.53
2019-02-12T13:45:44.513Z,1.40
2019-02-12T13:46:52.741Z,2.07
2019-02-12T13:48:01.322Z,1.63
2019-02-12T13:49:10.235Z,2.03
2019-02-12T13:50:18.545Z,2.27
2019-02-12T13:51:26.837Z,1.63
2019-02-12T13:52:34.578Z,1.13
2019-02-12T13:53:42.600Z,1.83
2019-02-12T13:54:50.442Z,2.40
2019-02-12T13:55:58.618Z,1.83
2019-02-12T13:57:06.417Z,2.77
2019-02-12T13:58:14.402Z,2.77
2019-02-12T13:59:22.089Z,2.20
2019-02-12T14:00:29.982Z,1.30
2019-02-12T14:01:37.824Z,2.20
2019-02-12T14:02:45.568Z,1.93
2019-02-12T14:03:53.974Z,1.83
2019-02-12T14:05:01.956Z,2.73
2019-02-12T14:06:09.935Z,2.80
2019-02-12T14:07:17.451Z,2.37
2019-02-12T14:08:25.428Z,1.43
2019-02-12T14:09:33.296Z,1.67
2019-02-12T14:10:41.305Z,2.30
2019-02-12T14:11:48.843Z,2.67
2019-02-12T14:12:56.797Z,2.90
2019-02-12T14:14:04.943Z,1.67
2019-02-12T14:15:14.319Z,2.33
2019-02-12T14:16:22.280Z,2.00
2019-02-12T14:17:30.505Z,2.90
2019-02-12T14:18:38.665Z,1.53
2019-02-12T14:19:46.864Z,3.40
2019-02-12T14:20:54.815Z,1.93
2019-02-12T14:22:02.920Z,1.80
2019-02-12T14:23:10.800Z,2.03
2019-02-12T14:24:20.122Z,1.93
2019-02-12T14:25:28.423Z,1.67
2019-02-12T14:26:36.315Z,2.10
2019-02-12T14:27:44.299Z,2.63
2019-02-12T14:28:54.156Z,3.57
2019-02-12T14:30:02.518Z,2.27
2019-02-12T14:31:10.817Z,2.67
2019-02-12T14:32:19.048Z,2.93
2019-02-12T14:33:27.095Z,2.67
2019-02-12T14:34:35.035Z,2.27
2019-02-12T14:35:42.961Z,2.67
2019-02-12T14:36:50.920Z,1.80
2019-02-12T14:37:58.525Z,2.83
2019-02-12T14:39:06.911Z,2.03
2019-02-12T14:40:16.570Z,2.07
2019-02-12T14:41:24.412Z,1.67
2019-02-12T14:42:32.381Z,1.50
2019-02-12T14:43:40.790Z,2.80
2019-02-12T14:44:49.185Z,2.07
2019-02-12T14:45:57.111Z,2.23
2019-02-12T14:47:05.636Z,2.37
2019-02-12T14:48:13.167Z,2.60
2019-02-12T14:49:21.466Z,1.87
2019-02-12T14:50:29.204Z,2.53
2019-02-12T14:51:37.184Z,2.47
2019-02-12T14:52:45.285Z,1.80
2019-02-12T14:53:53.088Z,2.57
2019-02-12T14:55:01.115Z,2.50
2019-02-12T14:56:11.375Z,2.73
2019-02-12T14:57:18.791Z,1.80
2019-02-12T14:58:26.633Z,2.20
2019-02-12T14:59:34.599Z,2.47
2019-02-12T15:00:42.499Z,2.73
2019-02-12T15:01:50.719Z,2.53
2019-02-12T15:02:58.325Z,2.20
2019-02-12T15:04:05.824Z,2.30
2019-02-12T15:05:13.962Z,1.67
2019-02-12T15:06:22.031Z,2.43
2019-02-12T15:07:30.260Z,2.40
2019-02-12T15:08:37.948Z,2.23
2019-02-12T15:09:46.324Z,1.83
2019-02-12T15:10:53.766Z,2.50
2019-02-12T15:12:02.001Z,1.80
2019-02-12T15:13:10.060Z,2.07
2019-02-12T15:14:19.910Z,3.53
2019-02-12T15:15:28.213Z,2.47
2019-02-12T15:16:36.235Z,2.00
2019-02-12T15:17:43.952Z,2.80
2019-02-12T15:18:51.932Z,2.77
2019-02-12T15:19:59.497Z,2.90
2019-02-12T15:21:07.646Z,2.27
2019-02-12T15:22:15.437Z,2.70
2019-02-12T15:23:23.682Z,3.07
2019-02-12T15:24:31.704Z,2.27
2019-02-12T15:25:42.039Z,2.47
2019-02-12T15:26:49.659Z,3.03
2019-02-12T15:27:57.735Z,1.47
2019-02-12T15:29:05.701Z,1.90
2019-02-12T15:30:17.857Z,2.07
2019-02-12T15:31:25.581Z,2.50
2019-02-12T15:32:33.915Z,2.97
2019-02-12T15:33:42.054Z,3.33
2019-02-12T15:34:50.405Z,2.27
2019-02-12T15:35:58.511Z,2.97
2019-02-12T15:37:06.472Z,2.27
2019-02-12T15:38:14.310Z,2.43
2019-02-12T15:39:22.243Z,4.23
2019-02-12T15:40:30.072Z,2.33
2019-02-12T15:41:38.021Z,2.63
2019-02-12T15:42:45.989Z,2.83
2019-02-12T15:43:53.641Z,2.03
2019-02-12T15:45:01.659Z,3.07
2019-02-12T15:46:09.913Z,2.50
2019-02-12T15:47:17.851Z,2.53
2019-02-12T15:48:26.364Z,2.47
2019-02-12T15:49:34.627Z,3.37
2019-02-12T15:50:42.683Z,2.87
2019-02-12T15:51:51.049Z,2.70
2019-02-12T15:52:59.051Z,3.43
2019-02-12T15:54:07.602Z,4.30
2019-02-12T15:55:16.318Z,2.57
2019-02-12T15:56:24.474Z,3.00
2019-02-12T15:57:32.963Z,3.10
2019-02-12T15:58:40.958Z,2.13
2019-02-12T15:59:49.210Z,3.73
2019-02-12T16:00:57.052Z,2.30
2019-02-12T16:02:04.737Z,3.67
2019-02-12T16:03:12.451Z,2.90
2019-02-12T16:04:21.663Z,2.63
2019-02-12T16:05:30.694Z,3.00
2019-02-12T16:06:40.292Z,2.97
2019-02-12T16:07:48.909Z,1.97
2019-02-12T16:08:56.599Z,2.70
2019-02-12T16:10:05.934Z,1.70
2019-02-12T16:11:14.029Z,3.50
2019-02-12T16:12:22.108Z,3.63
2019-02-12T16:13:30.369Z,2.97
2019-02-12T16:14:40.025Z,2.70
2019-02-12T16:15:48.378Z,3.30
2019-02-12T16:16:57.316Z,3.23
2019-02-12T16:18:05.667Z,2.80
2019-02-12T16:19:14.202Z,2.67
2019-02-12T16:20:23.062Z,2.17
2019-02-12T16:21:31.499Z,3.73
2019-02-12T16:22:39.747Z,2.57
2019-02-12T16:23:47.796Z,4.27
2019-02-12T16:24:56.459Z,4.87
2019-02-12T16:26:04.351Z,3.43
2019-02-12T16:27:12.595Z,3.43
2019-02-12T16:28:20.482Z,3.37
2019-02-12T16:29:28.443Z,2.67
2019-02-12T16:30:36.594Z,2.10
2019-02-12T16:31:44.679Z,3.20
2019-02-12T16:32:52.865Z,2.73
2019-02-12T16:34:00.638Z,3.53
2019-02-12T16:35:14.400Z,3.23
2019-02-12T16:36:22.802Z,2.87
2019-02-12T16:37:30.895Z,3.53
2019-02-12T16:38:40.389Z,3.80
2019-02-12T16:39:48.331Z,3.37
2019-02-12T16:40:56.225Z,2.23
2019-02-12T16:42:04.151Z,2.73
2019-02-12T16:43:12.147Z,3.37
2019-02-12T16:44:20.225Z,3.00
2019-02-12T16:45:44.834Z,4.43
2019-02-12T16:46:52.574Z,3.53
2019-02-12T16:48:01.217Z,2.33
2019-02-12T16:49:09.034Z,3.00
2019-02-12T16:50:16.938Z,2.90
2019-02-12T16:51:24.991Z,3.00
2019-02-12T16:52:33.130Z,4.63
2019-02-12T16:53:41.275Z,2.93
2019-02-12T16:54:51.176Z,4.30
2019-02-12T16:55:59.137Z,2.97
2019-02-12T16:57:06.921Z,2.60
2019-02-12T16:58:14.998Z,3.17
2019-02-12T16:59:22.986Z,4.27
2019-02-12T17:00:30.946Z,3.07
2019-02-12T17:01:38.601Z,3.00
2019-02-12T17:02:46.977Z,1.93
2019-02-12T17:03:56.178Z,2.13
2019-02-12T17:05:07.319Z,2.97
2019-02-12T17:06:15.160Z,3.90
2019-02-12T17:07:23.008Z,4.07
2019-02-12T17:08:30.939Z,2.77
2019-02-12T17:09:38.937Z,3.80
2019-02-12T17:10:46.889Z,2.83
2019-02-12T17:11:54.925Z,2.57
2019-02-12T17:13:02.977Z,2.13
2019-02-12T17:14:10.815Z,2.60
2019-02-12T17:15:18.779Z,2.63
2019-02-12T17:16:26.567Z,3.27
2019-02-12T17:17:35.019Z,4.07
2019-02-12T17:18:43.529Z,2.27
2019-02-12T17:19:51.214Z,3.67
2019-02-12T17:20:59.210Z,2.70
2019-02-12T17:22:06.952Z,2.20
2019-02-12T17:23:14.845Z,2.63
2019-02-12T17:24:22.926Z,3.00
2019-02-12T17:25:30.521Z,3.83
2019-02-12T17:26:39.018Z,3.27
2019-02-12T17:27:48.103Z,3.60
2019-02-12T17:28:56.127Z,3.10
2019-02-12T17:30:05.342Z,4.30
2019-02-12T17:31:13.009Z,3.37
2019-02-12T17:32:21.029Z,3.10
2019-02-12T17:33:29.064Z,3.70
2019-02-12T17:34:36.932Z,2.67
2019-02-12T17:35:45.124Z,3.80
2019-02-12T17:36:52.750Z,2.60
2019-02-12T17:38:00.393Z,4.63
2019-02-12T17:39:08.821Z,3.80
2019-02-12T17:40:18.562Z,3.03
2019-02-12T17:41:26.358Z,4.00
2019-02-12T17:42:34.162Z,2.60
2019-02-12T17:43:41.746Z,3.87
2019-02-12T17:44:49.811Z,3.80
2019-02-12T17:45:57.616Z,4.23
2019-02-12T17:47:06.556Z,3.00
2019-02-12T17:48:14.965Z,3.70
2019-02-12T17:49:23.215Z,5.50
2019-02-12T17:50:31.167Z,3.47
2019-02-12T17:51:39.093Z,3.23
2019-02-12T17:52:47.284Z,3.13
2019-02-12T17:53:54.944Z,4.80
2019-02-12T17:55:02.906Z,4.13
2019-02-12T17:56:10.884Z,3.73
2019-02-12T17:57:19.344Z,3.37
2019-02-12T17:58:27.433Z,4.27
2019-02-12T17:59:35.399Z,2.63
2019-02-12T18:00:45.459Z,3.23
2019-02-12T18:01:53.635Z,3.27
2019-02-12T18:03:01.531Z,3.27
2019-02-12T18:04:09.550Z,3.50
2019-02-12T18:05:17.649Z,3.63
2019-02-12T18:06:25.651Z,3.93
2019-02-12T18:07:33.781Z,3.97
2019-02-12T18:08:41.773Z,3.83
2019-02-12T18:09:49.671Z,4.13
2019-02-12T18:11:00.311Z,2.93
2019-02-12T18:12:09.876Z,4.10
2019-02-12T18:13:18.118Z,3.33
2019-02-12T18:14:26.093Z,2.80
2019-02-12T18:15:34.185Z,5.17
2019-02-12T18:16:42.443Z,3.50
2019-02-12T18:17:50.560Z,3.17
2019-02-12T18:18:59.077Z,2.80
2019-02-12T18:20:10.627Z,3.80
2019-02-12T18:21:18.775Z,4.87
2019-02-12T18:22:26.987Z,3.13
2019-02-12T18:23:35.487Z,3.23
2019-02-12T18:24:45.813Z,3.43
2019-02-12T18:25:54.031Z,2.87
2019-02-12T18:27:02.051Z,3.73
2019-02-12T18:28:10.130Z,3.67
2019-02-12T18:29:18.598Z,3.90
2019-02-12T18:30:26.416Z,3.03
2019-02-12T18:31:34.632Z,4.13
2019-02-12T18:32:43.299Z,4.07
2019-02-12T18:33:51.725Z,3.93
2019-02-12T18:34:59.920Z,3.93
2019-02-12T18:36:07.809Z,3.80
2019-02-12T18:37:16.204Z,3.53
2019-02-12T18:38:24.233Z,3.43
2019-02-12T18:39:32.307Z,2.80
2019-02-12T18:40:40.695Z,3.13
2019-02-12T18:41:49.146Z,3.70
2019-02-12T18:42:57.177Z,4.30
2019-02-12T18:44:05.364Z,3.27
2019-02-12T18:45:19.562Z,3.33
2019-02-12T18:46:28.556Z,2.93
2019-02-12T18:47:36.569Z,2.87
2019-02-12T18:48:46.278Z,2.93
2019-02-12T18:49:54.636Z,4.13
2019-02-12T18:51:04.630Z,3.03
2019-02-12T18:52:13.759Z,3.23
2019-02-12T18:53:21.886Z,2.27
2019-02-12T18:54:30.256Z,3.27
2019-02-12T18:55:38.053Z,2.97
2019-02-12T18:56:46.309Z,3.17
2019-02-12T18:57:54.913Z,3.57
2019-02-12T18:59:02.937Z,3.10
2019-02-12T19:00:20.913Z,3.07
2019-02-12T19:01:28.938Z,3.27
2019-02-12T19:02:37.040Z,3.77
2019-02-12T19:03:45.651Z,3.57
2019-02-12T19:04:55.400Z,4.10
2019-02-12T19:06:03.930Z,2.97
2019-02-12T19:07:12.960Z,2.10
2019-02-12T19:08:20.926Z,3.60
2019-02-12T19:09:28.770Z,3.10
2019-02-12T19:10:36.665Z,3.27
2019-02-12T19:11:53.967Z,2.63
2019-02-12T19:12:56.265Z,3.80
2019-02-12T19:14:05.024Z,4.97
2019-02-12T19:15:18.154Z,2.53
2019-02-12T19:16:26.689Z,2.07
2019-02-12T19:17:35.813Z,2.20
2019-02-12T19:18:44.208Z,2.90
2019-02-12T19:19:53.182Z,4.03
2019-02-12T19:21:03.636Z,2.97
2019-02-12T19:22:12.279Z,2.17
2019-02-12T19:23:23.692Z,3.33
2019-02-12T19:24:32.921Z,3.20
2019-02-12T19:25:41.456Z,2.90
2019-02-12T19:26:50.179Z,2.00
2019-02-12T19:27:58.369Z,3.87
2019-02-12T19:29:08.177Z,3.37
2019-02-12T19:30:18.952Z,2.63
2019-02-12T19:31:28.468Z,3.23
2019-02-12T19:32:38.422Z,2.73
2019-02-12T19:33:46.251Z,2.80
2019-02-12T19:34:54.309Z,2.97
2019-02-12T19:36:03.752Z,4.43
2019-02-12T19:37:11.814Z,2.90
2019-02-12T19:38:20.058Z,2.60
2019-02-12T19:39:29.531Z,2.93
2019-02-12T19:40:38.505Z,3.17
2019-02-12T19:41:47.219Z,2.73
2019-02-12T19:42:55.773Z,3.20
2019-02-12T19:44:06.104Z,3.37
2019-02-12T19:45:18.743Z,3.93
2019-02-12T19:46:27.001Z,3.50
2019-02-12T19:47:35.790Z,3.87
2019-02-12T19:48:43.785Z,3.57
2019-02-12T19:49:51.946Z,3.50
2019-02-12T19:51:00.346Z,2.63
2019-02-12T19:52:09.256Z,4.53
2019-02-12T19:53:17.922Z,4.00
2019-02-12T19:54:26.069Z,2.90
2019-02-12T19:55:34.380Z,3.47
2019-02-12T19:56:42.716Z,3.40
2019-02-12T19:57:50.570Z,2.57
2019-02-12T19:58:58.654Z,4.40
2019-02-12T20:00:19.488Z,3.73
2019-02-12T20:01:27.100Z,3.53
2019-02-12T20:02:38.415Z,4.03
2019-02-12T20:03:47.488Z,2.97
2019-02-12T20:04:58.223Z,3.90
2019-02-12T20:06:06.870Z,2.70
2019-02-12T20:07:19.518Z,2.73
2019-02-12T20:08:28.289Z,4.70
2019-02-12T20:09:36.744Z,4.43
2019-02-12T20:10:45.161Z,4.70
2019-02-12T20:11:54.351Z,3.83
2019-02-12T20:13:05.620Z,4.50
2019-02-12T20:14:20.227Z,2.97
2019-02-12T20:15:33.437Z,4.10
2019-02-12T20:16:42.882Z,2.43
2019-02-12T20:17:51.244Z,3.13
2019-02-12T20:19:00.275Z,3.03
2019-02-12T20:20:12.311Z,3.97
2019-02-12T20:21:21.149Z,4.40
2019-02-12T20:22:30.427Z,3.83
2019-02-12T20:23:39.212Z,3.70
2019-02-12T20:24:48.191Z,3.90
2019-02-12T20:25:56.554Z,3.20
2019-02-12T20:27:06.726Z,5.10
2019-02-12T20:28:14.697Z,4.20
2019-02-12T20:29:23.600Z,3.10
2019-02-12T20:30:32.278Z,3.77
2019-02-12T20:31:41.090Z,4.83
2019-02-12T20:32:49.455Z,2.80
2019-02-12T20:33:57.427Z,2.83
2019-02-12T20:35:07.793Z,3.40
2019-02-12T20:36:15.932Z,4.13
2019-02-12T20:37:23.925Z,3.33
2019-02-12T20:38:33.478Z,3.37
2019-02-12T20:39:44.192Z,4.57
2019-02-12T20:41:51.683Z,2.63
2019-02-12T20:43:01.114Z,2.33
2019-02-12T20:44:10.241Z,5.20
2019-02-12T20:45:21.064Z,3.00
2019-02-12T20:46:30.663Z,3.83
2019-02-12T20:47:39.791Z,2.97
2019-02-12T20:48:49.716Z,3.80
2019-02-12T20:49:58.416Z,2.87
2019-02-12T20:51:06.263Z,3.10
2019-02-12T20:52:14.232Z,2.77
2019-02-12T20:53:22.813Z,2.50
2019-02-12T20:54:31.690Z,3.67
2019-02-12T20:55:41.487Z,3.57
2019-02-12T20:56:51.329Z,3.13
2019-02-12T20:58:00.644Z,3.10
2019-02-12T20:59:09.201Z,3.00
2019-02-12T21:00:22.321Z,5.10
2019-02-12T21:01:30.284Z,3.07
2019-02-12T21:02:39.611Z,4.97
2019-02-12T21:03:49.540Z,3.10
2019-02-12T21:04:57.831Z,3.40
2019-02-12T21:06:06.939Z,3.77
2019-02-12T21:07:15.593Z,3.13
2019-02-12T21:08:25.338Z,3.63
2019-02-12T21:09:34.110Z,3.33
2019-02-12T21:10:47.097Z,4.40
2019-02-12T21:11:56.085Z,3.17
2019-02-12T21:13:05.908Z,3.73
2019-02-12T21:14:13.989Z,3.00
2019-02-12T21:15:28.779Z,5.60
2019-02-12T21:16:37.308Z,2.93
2019-02-12T21:17:45.984Z,2.93
2019-02-12T21:18:54.803Z,3.30
2019-02-12T21:20:03.608Z,6.40
2019-02-12T21:21:12.925Z,3.50
2019-02-12T21:22:21.934Z,3.27
2019-02-12T21:23:30.755Z,3.80
2019-02-12T21:24:39.973Z,2.73
2019-02-12T21:25:49.361Z,4.13
2019-02-12T21:27:01.795Z,3.97
2019-02-12T21:28:09.856Z,3.40
2019-02-12T21:29:18.354Z,3.87
2019-02-12T21:30:34.283Z,3.40
2019-02-12T21:31:42.416Z,4.33
2019-02-12T21:32:50.239Z,2.53